createdAt,value
2023-01-20T00:00:09.481Z,-0.1
2023-01-20T00:01:09.491Z,-0.1
2023-01-20T00:02:09.487Z,-0.1
2023-01-20T00:03:09.486Z,-0.1
2023-01-20T00:04:09.490Z,-0.1
2023-01-20T00:05:09.632Z,-0.1
2023-01-20T00:06:09.499Z,-0.1
2023-01-20T00:07:09.487Z,-0.1
2023-01-20T00:08:09.485Z,-0.1
2023-01-20T00:09:09.486Z,-0.1
2023-01-20T00:10:09.485Z,-0.1
2023-01-20T00:11:09.601Z,-0.1
2023-01-20T00:12:09.485Z,-0.1
2023-01-20T00:13:09.486Z,-0.1
2023-01-20T00:14:09.486Z,-0.1
2023-01-20T00:15:09.481Z,0
2023-01-20T00:16:09.568Z,-0.1
2023-01-20T00:17:09.499Z,-0.1
2023-01-20T00:18:09.497Z,-0.1
2023-01-20T00:19:09.515Z,-0.1
2023-01-20T00:20:09.483Z,-0.1
2023-01-20T00:21:09.486Z,-0.1
2023-01-20T00:22:09.492Z,-0.1
2023-01-20T00:23:09.492Z,-0.1
2023-01-20T00:24:09.499Z,-0.1
2023-01-20T00:25:09.614Z,-0.1
2023-01-20T00:26:09.503Z,-0.1
2023-01-20T00:27:09.482Z,-0.1
2023-01-20T00:28:09.485Z,-0.1
2023-01-20T00:29:09.488Z,-0.1
2023-01-20T00:30:09.481Z,-0.2
2023-01-20T00:31:09.547Z,-0.2
2023-01-20T00:32:09.481Z,-0.2
2023-01-20T00:33:09.492Z,-0.2
2023-01-20T00:34:09.485Z,-0.2
2023-01-20T00:35:09.497Z,-0.2
2023-01-20T00:36:09.489Z,-0.3
2023-01-20T00:37:09.483Z,-0.3
2023-01-20T00:38:09.499Z,-0.3
2023-01-20T00:39:09.483Z,-0.3
2023-01-20T00:40:09.487Z,-0.4
2023-01-20T00:41:09.483Z,-0.5
2023-01-20T00:42:09.497Z,-0.5
2023-01-20T00:43:09.487Z,-0.5
2023-01-20T00:44:09.492Z,-0.6
2023-01-20T00:45:09.494Z,-0.6
2023-01-20T00:46:09.519Z,-0.7
2023-01-20T00:47:09.485Z,-0.7
2023-01-20T00:48:09.484Z,-0.7
2023-01-20T00:49:09.484Z,-0.7
2023-01-20T00:50:09.490Z,-0.6
2023-01-20T00:51:09.490Z,-0.6
2023-01-20T00:52:09.489Z,-0.6
2023-01-20T00:53:09.484Z,-0.6
2023-01-20T00:54:09.482Z,-0.6
2023-01-20T00:55:09.485Z,-0.6
2023-01-20T00:56:09.486Z,-0.6
2023-01-20T00:57:09.479Z,-0.6
2023-01-20T00:58:09.498Z,-0.7
2023-01-20T00:59:09.516Z,-0.7
2023-01-20T01:00:09.485Z,-0.8
2023-01-20T01:01:09.587Z,-0.8
2023-01-20T01:02:09.615Z,-0.8
2023-01-20T01:03:09.488Z,-0.8
2023-01-20T01:04:09.485Z,-0.9
2023-01-20T01:05:09.548Z,-0.9
2023-01-20T01:06:09.575Z,-0.9
2023-01-20T01:07:09.490Z,-0.9
2023-01-20T01:08:09.492Z,-0.9
2023-01-20T01:09:09.485Z,-0.9
2023-01-20T01:10:09.486Z,-0.8
2023-01-20T01:11:09.481Z,-0.8
2023-01-20T01:12:09.484Z,-0.8
2023-01-20T01:13:09.484Z,-0.8
2023-01-20T01:14:09.486Z,-0.8
2023-01-20T01:15:09.480Z,-0.8
2023-01-20T01:16:09.505Z,-0.8
2023-01-20T01:17:09.490Z,-0.7
2023-01-20T01:18:09.480Z,-0.7
2023-01-20T01:19:09.482Z,-0.7
2023-01-20T01:20:09.583Z,-0.6
2023-01-20T01:21:09.493Z,-0.6
2023-01-20T01:22:09.666Z,-0.6
2023-01-20T01:23:09.998Z,-0.5
2023-01-20T01:24:10.202Z,-0.5
2023-01-20T01:25:10.616Z,-0.5
2023-01-20T01:26:09.494Z,-0.5
2023-01-20T01:27:09.491Z,-0.5
2023-01-20T01:28:09.501Z,-0.5
2023-01-20T01:29:09.741Z,-0.5
2023-01-20T01:30:09.484Z,-0.4
2023-01-20T01:31:09.566Z,-0.4
2023-01-20T01:32:09.483Z,-0.4
2023-01-20T01:33:09.499Z,-0.4
2023-01-20T01:34:09.488Z,-0.5
2023-01-20T01:35:09.509Z,-0.5
2023-01-20T01:36:09.485Z,-0.5
2023-01-20T01:37:09.489Z,-0.5
2023-01-20T01:38:09.506Z,-0.6
2023-01-20T01:39:09.479Z,-0.6
2023-01-20T01:40:09.494Z,-0.7
2023-01-20T01:41:09.482Z,-0.7
2023-01-20T01:42:09.481Z,-0.8
2023-01-20T01:43:09.480Z,-0.8
2023-01-20T01:44:09.481Z,-0.8
2023-01-20T01:45:09.483Z,-0.8
2023-01-20T01:46:09.494Z,-0.9
2023-01-20T01:47:09.484Z,-0.9
2023-01-20T01:48:09.499Z,-1
2023-01-20T01:49:09.498Z,-1
2023-01-20T01:50:09.546Z,-1
2023-01-20T01:51:09.495Z,-1
2023-01-20T01:52:09.513Z,-1.1
2023-01-20T01:53:09.508Z,-1.1
2023-01-20T01:54:09.497Z,-1.1
2023-01-20T01:55:09.490Z,-1.1
2023-01-20T01:56:09.494Z,-1.1
2023-01-20T01:57:09.512Z,-1.1
2023-01-20T01:58:09.492Z,-1.1
2023-01-20T01:59:09.481Z,-1
2023-01-20T02:00:09.490Z,-1
2023-01-20T02:01:09.593Z,-1
2023-01-20T02:02:09.525Z,-1
2023-01-20T02:03:09.488Z,-1
2023-01-20T02:04:09.499Z,-0.9
2023-01-20T02:05:09.505Z,-0.9
2023-01-20T02:06:09.489Z,-0.9
2023-01-20T02:07:09.494Z,-0.8
2023-01-20T02:08:09.501Z,-0.8
2023-01-20T02:09:09.486Z,-0.8
2023-01-20T02:10:09.480Z,-0.8
2023-01-20T02:11:09.494Z,-0.8
2023-01-20T02:12:09.482Z,-0.7
2023-01-20T02:13:09.507Z,-0.7
2023-01-20T02:14:09.499Z,-0.6
2023-01-20T02:15:09.504Z,-0.6
2023-01-20T02:16:09.539Z,-0.6
2023-01-20T02:17:09.493Z,-0.6
2023-01-20T02:18:09.507Z,-0.6
2023-01-20T02:19:09.492Z,-0.5
2023-01-20T02:20:09.488Z,-0.5
2023-01-20T02:21:09.514Z,-0.5
2023-01-20T02:22:09.497Z,-0.5
2023-01-20T02:23:09.495Z,-0.5
2023-01-20T02:24:09.492Z,-0.5
2023-01-20T02:25:09.485Z,-0.5
2023-01-20T02:26:09.489Z,-0.5
2023-01-20T02:27:09.502Z,-0.5
2023-01-20T02:28:09.497Z,-0.5
2023-01-20T02:29:09.485Z,-0.4
2023-01-20T02:30:09.488Z,-0.4
2023-01-20T02:31:09.488Z,-0.4
2023-01-20T02:32:09.506Z,-0.3
2023-01-20T02:33:09.531Z,-0.3
2023-01-20T02:34:09.496Z,-0.3
2023-01-20T02:35:09.488Z,-0.3
2023-01-20T02:36:09.487Z,-0.3
2023-01-20T02:37:09.520Z,-0.3
2023-01-20T02:38:09.492Z,-0.3
2023-01-20T02:39:09.486Z,-0.2
2023-01-20T02:40:09.501Z,-0.2
2023-01-20T02:41:09.507Z,-0.2
2023-01-20T02:42:09.575Z,-0.1
2023-01-20T02:43:09.805Z,-0.1
2023-01-20T02:44:09.520Z,-0.1
2023-01-20T02:45:09.495Z,-0.1
2023-01-20T02:46:09.492Z,-0.1
2023-01-20T02:47:09.512Z,-0.1
2023-01-20T02:48:09.493Z,-0.1
2023-01-20T02:49:09.484Z,-0.1
2023-01-20T02:50:09.496Z,-0.1
2023-01-20T02:51:09.486Z,-0.1
2023-01-20T02:52:09.496Z,0
2023-01-20T02:53:09.497Z,0
2023-01-20T02:54:09.488Z,0
2023-01-20T02:55:09.502Z,0
2023-01-20T02:56:09.485Z,0
2023-01-20T02:57:09.506Z,0
2023-01-20T02:58:09.759Z,0
2023-01-20T02:59:09.683Z,0.1
2023-01-20T03:00:09.947Z,0.1
2023-01-20T03:01:09.531Z,0.1
2023-01-20T03:02:09.548Z,0.1
2023-01-20T03:03:09.753Z,0.1
2023-01-20T03:04:09.633Z,0.1
2023-01-20T03:05:09.767Z,0.1
2023-01-20T03:06:09.678Z,0.1
2023-01-20T03:07:09.565Z,0.1
2023-01-20T03:08:09.760Z,0.1
2023-01-20T03:09:09.486Z,0.1
2023-01-20T03:10:09.486Z,0.1
2023-01-20T03:11:09.552Z,0.1
2023-01-20T03:12:09.772Z,0.1
2023-01-20T03:13:09.713Z,0.1
2023-01-20T03:14:09.484Z,0.1
2023-01-20T03:15:09.485Z,0.1
2023-01-20T03:16:09.494Z,0.1
2023-01-20T03:17:09.488Z,0.1
2023-01-20T03:18:09.803Z,0.1
2023-01-20T03:19:09.490Z,0.1
2023-01-20T03:20:09.484Z,0.1
2023-01-20T03:21:09.488Z,0.1
2023-01-20T03:22:09.508Z,0.1
2023-01-20T03:23:09.499Z,0.2
2023-01-20T03:24:09.492Z,0.2
2023-01-20T03:25:09.491Z,0.2
2023-01-20T03:26:09.501Z,0.2
2023-01-20T03:27:09.493Z,0.2
2023-01-20T03:28:09.486Z,0.2
2023-01-20T03:29:09.504Z,0.2
2023-01-20T03:30:09.483Z,0.2
2023-01-20T03:31:09.607Z,0.2
2023-01-20T03:32:09.484Z,0.2
2023-01-20T03:33:09.486Z,0.2
2023-01-20T03:34:09.481Z,0.2
2023-01-20T03:35:09.499Z,0.2
2023-01-20T03:36:09.489Z,0.2
2023-01-20T03:37:09.488Z,0.2
2023-01-20T03:38:09.481Z,0.2
2023-01-20T03:39:09.482Z,0.2
2023-01-20T03:40:09.484Z,0.2
2023-01-20T03:41:09.751Z,0.2
2023-01-20T03:42:09.490Z,0.2
2023-01-20T03:43:09.480Z,0.2
2023-01-20T03:44:09.483Z,0.2
2023-01-20T03:45:09.496Z,0.2
2023-01-20T03:46:09.511Z,0.2
2023-01-20T03:47:09.500Z,0.2
2023-01-20T03:48:09.487Z,0.2
2023-01-20T03:49:09.481Z,0.2
2023-01-20T03:50:09.489Z,0.2
2023-01-20T03:51:09.482Z,0.2
2023-01-20T03:52:09.487Z,0.2
2023-01-20T03:53:09.487Z,0.2
2023-01-20T03:54:09.492Z,0.2
2023-01-20T03:55:09.481Z,0.2
2023-01-20T03:56:09.486Z,0.2
2023-01-20T03:57:09.480Z,0.2
2023-01-20T03:58:09.498Z,0.2
2023-01-20T03:59:09.507Z,0.2
2023-01-20T04:00:09.499Z,0.2
2023-01-20T04:01:16.044Z,0.2
2023-01-20T04:02:09.616Z,0.2
2023-01-20T04:03:09.497Z,0.2
2023-01-20T04:04:09.486Z,0.2
2023-01-20T04:05:09.491Z,0.1
2023-01-20T04:06:09.487Z,0.1
2023-01-20T04:07:09.486Z,0.1
2023-01-20T04:08:09.494Z,0.1
2023-01-20T04:09:09.488Z,0.1
2023-01-20T04:10:09.509Z,0.1
2023-01-20T04:11:09.482Z,0.1
2023-01-20T04:12:09.492Z,0.1
2023-01-20T04:13:09.496Z,0.1
2023-01-20T04:14:09.579Z,0.1
2023-01-20T04:15:09.486Z,0.1
2023-01-20T04:16:09.508Z,0.1
2023-01-20T04:17:09.482Z,0.1
2023-01-20T04:18:09.482Z,0.1
2023-01-20T04:19:09.486Z,0.1
2023-01-20T04:20:09.487Z,0.1
2023-01-20T04:21:09.495Z,0.1
2023-01-20T04:22:09.484Z,0.1
2023-01-20T04:23:09.485Z,0.1
2023-01-20T04:24:09.483Z,0.1
2023-01-20T04:25:09.498Z,0.1
2023-01-20T04:26:09.502Z,0.1
2023-01-20T04:27:09.486Z,0.1
2023-01-20T04:28:09.505Z,0.1
2023-01-20T04:29:12.742Z,0.1
2023-01-20T04:30:09.479Z,0.1
2023-01-20T04:31:18.214Z,0.1
2023-01-20T04:32:09.502Z,0.1
2023-01-20T04:33:09.481Z,0.1
2023-01-20T04:34:09.484Z,0.1
2023-01-20T04:35:09.480Z,0.1
2023-01-20T04:36:09.481Z,0.1
2023-01-20T04:37:09.482Z,0.1
2023-01-20T04:38:09.488Z,0.1
2023-01-20T04:39:09.491Z,0.1
2023-01-20T04:40:09.496Z,0.1
2023-01-20T04:41:09.550Z,0.1
2023-01-20T04:42:09.488Z,0.1
2023-01-20T04:43:09.488Z,0.1
2023-01-20T04:44:09.485Z,0.1
2023-01-20T04:45:09.494Z,0.1
2023-01-20T04:46:09.544Z,0.1
2023-01-20T04:47:09.484Z,0.1
2023-01-20T04:48:09.494Z,0.1
2023-01-20T04:49:09.488Z,0.1
2023-01-20T04:50:09.507Z,0.1
2023-01-20T04:51:09.487Z,0.1
2023-01-20T04:52:09.485Z,0.1
2023-01-20T04:53:09.487Z,0.1
2023-01-20T04:54:09.495Z,0.1
2023-01-20T04:55:09.481Z,0.1
2023-01-20T04:56:09.484Z,0.2
2023-01-20T04:57:09.579Z,0.2
2023-01-20T04:58:09.967Z,0.2
2023-01-20T04:59:09.619Z,0.2
2023-01-20T05:00:09.912Z,0.2
2023-01-20T05:01:09.583Z,0.2
2023-01-20T05:02:09.504Z,0.2
2023-01-20T05:03:09.683Z,0.2
2023-01-20T05:04:09.510Z,0.2
2023-01-20T05:05:09.495Z,0.2
2023-01-20T05:06:09.488Z,0.2
2023-01-20T05:07:09.493Z,0.2
2023-01-20T05:08:09.486Z,0.2
2023-01-20T05:09:09.502Z,0.2
2023-01-20T05:10:09.720Z,0.2
2023-01-20T05:11:09.484Z,0.2
2023-01-20T05:12:09.725Z,0.2
2023-01-20T05:13:09.496Z,0.2
2023-01-20T05:14:09.506Z,0.2
2023-01-20T05:15:09.499Z,0.2
2023-01-20T05:16:09.515Z,0.2
2023-01-20T05:17:09.489Z,0.2
2023-01-20T05:18:09.505Z,0.2
2023-01-20T05:19:09.516Z,0.2
2023-01-20T05:20:09.491Z,0.2
2023-01-20T05:21:09.488Z,0.2
2023-01-20T05:22:09.486Z,0.2
2023-01-20T05:23:09.490Z,0.2
2023-01-20T05:24:09.507Z,0.2
2023-01-20T05:25:09.489Z,0.2
2023-01-20T05:26:09.479Z,0.2
2023-01-20T05:27:09.486Z,0.2
2023-01-20T05:28:09.482Z,0.2
2023-01-20T05:29:09.507Z,0.2
2023-01-20T05:30:09.600Z,0.2
2023-01-20T05:31:09.558Z,0.2
2023-01-20T05:32:09.487Z,0.2
2023-01-20T05:33:09.496Z,0.2
2023-01-20T05:34:09.501Z,0.2
2023-01-20T05:35:09.485Z,0.2
2023-01-20T05:36:09.486Z,0.2
2023-01-20T05:37:09.488Z,0.2
2023-01-20T05:38:09.491Z,0.3
2023-01-20T05:39:09.583Z,0.2
2023-01-20T05:40:09.494Z,0.3
2023-01-20T05:41:09.479Z,0.2
2023-01-20T05:42:09.520Z,0.3
2023-01-20T05:43:10.701Z,0.3
2023-01-20T05:44:09.491Z,0.3
2023-01-20T05:45:09.488Z,0.3
2023-01-20T05:46:09.505Z,0.3
2023-01-20T05:47:09.523Z,0.3
2023-01-20T05:48:09.489Z,0.3
2023-01-20T05:49:09.491Z,0.3
2023-01-20T05:50:09.487Z,0.3
2023-01-20T05:51:09.503Z,0.3
2023-01-20T05:52:09.589Z,0.3
2023-01-20T05:53:09.481Z,0.3
2023-01-20T05:54:09.480Z,0.3
2023-01-20T05:55:09.481Z,0.3
2023-01-20T05:56:09.494Z,0.3
2023-01-20T05:57:09.502Z,0.3
2023-01-20T05:58:09.484Z,0.3
2023-01-20T05:59:09.485Z,0.3
2023-01-20T06:00:09.488Z,0.3
2023-01-20T06:01:09.563Z,0.3
2023-01-20T06:02:09.625Z,0.3
2023-01-20T06:03:09.487Z,0.3
2023-01-20T06:04:09.570Z,0.3
2023-01-20T06:05:09.489Z,0.3
2023-01-20T06:06:09.496Z,0.3
2023-01-20T06:07:09.484Z,0.3
2023-01-20T06:08:09.601Z,0.3
2023-01-20T06:09:09.486Z,0.3
2023-01-20T06:10:09.484Z,0.3
2023-01-20T06:11:09.493Z,0.3
2023-01-20T06:12:09.507Z,0.3
2023-01-20T06:13:09.505Z,0.3
2023-01-20T06:14:09.500Z,0.3
2023-01-20T06:15:09.483Z,0.3
2023-01-20T06:16:09.546Z,0.3
2023-01-20T06:17:09.658Z,0.3
2023-01-20T06:18:09.829Z,0.3
2023-01-20T06:19:09.586Z,0.3
2023-01-20T06:20:09.492Z,0.3
2023-01-20T06:21:09.574Z,0.3
2023-01-20T06:22:09.603Z,0.3
2023-01-20T06:23:09.672Z,0.3
2023-01-20T06:24:09.485Z,0.3
2023-01-20T06:25:09.718Z,0.3
2023-01-20T06:26:09.482Z,0.3
2023-01-20T06:27:09.499Z,0.3
2023-01-20T06:28:09.629Z,0.3
2023-01-20T06:29:09.749Z,0.3
2023-01-20T06:30:09.701Z,0.3
2023-01-20T06:31:09.923Z,0.3
2023-01-20T06:32:09.981Z,0.3
2023-01-20T06:33:09.915Z,0.4
2023-01-20T06:34:09.574Z,0.4
2023-01-20T06:35:11.276Z,0.4
2023-01-20T06:36:09.680Z,0.4
2023-01-20T06:37:09.754Z,0.4
2023-01-20T06:38:09.643Z,0.4
2023-01-20T06:39:09.715Z,0.4
2023-01-20T06:40:09.616Z,0.4
2023-01-20T06:41:09.726Z,0.4
2023-01-20T06:42:11.061Z,0.4
2023-01-20T06:43:09.982Z,0.4
2023-01-20T06:44:09.626Z,0.4
2023-01-20T06:45:09.663Z,0.4
2023-01-20T06:46:09.687Z,0.4
2023-01-20T06:47:10.028Z,0.4
2023-01-20T06:48:09.760Z,0.4
2023-01-20T06:49:10.104Z,0.5
2023-01-20T06:50:09.808Z,0.5
2023-01-20T06:51:09.719Z,0.4
2023-01-20T06:52:09.751Z,0.4
2023-01-20T06:53:09.677Z,0.5
2023-01-20T06:54:09.723Z,0.4
2023-01-20T06:55:09.753Z,0.4
2023-01-20T06:56:09.746Z,0.4
2023-01-20T06:57:09.775Z,0.4
2023-01-20T06:58:09.573Z,0.4
2023-01-20T06:59:09.759Z,0.4
2023-01-20T07:00:09.727Z,0.4
2023-01-20T07:01:09.772Z,0.4
2023-01-20T07:02:09.910Z,0.4
2023-01-20T07:03:09.743Z,0.4
2023-01-20T07:04:09.772Z,0.4
2023-01-20T07:05:09.923Z,0.4
2023-01-20T07:06:09.900Z,0.4
2023-01-20T07:07:09.857Z,0.4
2023-01-20T07:08:09.856Z,0.4
2023-01-20T07:09:09.894Z,0.4
2023-01-20T07:10:09.759Z,0.4
2023-01-20T07:11:09.709Z,0.4
2023-01-20T07:12:09.837Z,0.3
2023-01-20T07:13:09.903Z,0.3
2023-01-20T07:14:09.490Z,0.3
2023-01-20T07:15:09.812Z,0.3
2023-01-20T07:16:11.086Z,0.3
2023-01-20T07:17:09.481Z,0.2
2023-01-20T07:18:09.784Z,0.2
2023-01-20T07:19:09.728Z,0.2
2023-01-20T07:20:09.774Z,0.2
2023-01-20T07:21:09.846Z,0.2
2023-01-20T07:22:09.504Z,0.1
2023-01-20T07:23:09.505Z,0.1
2023-01-20T07:24:09.487Z,0.1
2023-01-20T07:25:09.793Z,0.1
2023-01-20T07:26:09.786Z,0.1
2023-01-20T07:27:10.044Z,0.1
2023-01-20T07:28:10.452Z,0.1
2023-01-20T07:29:10.108Z,0.1
2023-01-20T07:30:09.504Z,0
2023-01-20T07:31:10.350Z,0
2023-01-20T07:32:09.537Z,0
2023-01-20T07:33:09.850Z,-0.1
2023-01-20T07:34:09.491Z,-0.1
2023-01-20T07:35:09.504Z,-0.1
2023-01-20T07:36:09.501Z,-0.1
2023-01-20T07:37:09.515Z,-0.1
2023-01-20T07:38:09.491Z,-0.1
2023-01-20T07:39:09.485Z,-0.1
2023-01-20T07:40:09.509Z,-0.1
2023-01-20T07:41:09.488Z,-0.1
2023-01-20T07:42:09.498Z,-0.1
2023-01-20T07:43:09.494Z,-0.2
2023-01-20T07:44:09.490Z,-0.2
2023-01-20T07:45:09.488Z,-0.2
2023-01-20T07:46:09.534Z,-0.2
2023-01-20T07:47:09.490Z,-0.2
2023-01-20T07:48:09.494Z,-0.2
2023-01-20T07:49:12.025Z,-0.2
2023-01-20T07:50:09.513Z,-0.2
2023-01-20T07:51:09.489Z,-0.2
2023-01-20T07:52:09.486Z,-0.2
2023-01-20T07:53:09.497Z,-0.2
2023-01-20T07:54:09.489Z,-0.2
2023-01-20T07:55:09.483Z,-0.2
2023-01-20T07:56:09.497Z,-0.2
2023-01-20T07:57:09.500Z,-0.3
2023-01-20T07:58:09.490Z,-0.3
2023-01-20T07:59:09.488Z,-0.3
2023-01-20T08:00:09.489Z,-0.3
2023-01-20T08:01:09.587Z,-0.3
2023-01-20T08:02:09.495Z,-0.3
2023-01-20T08:03:09.502Z,-0.3
2023-01-20T08:04:09.507Z,-0.3
2023-01-20T08:05:09.512Z,-0.3
2023-01-20T08:06:09.484Z,-0.2
2023-01-20T08:07:09.482Z,-0.2
2023-01-20T08:08:09.497Z,-0.2
2023-01-20T08:09:09.495Z,-0.2
2023-01-20T08:10:09.487Z,-0.2
2023-01-20T08:11:09.495Z,-0.2
2023-01-20T08:12:09.492Z,-0.1
2023-01-20T08:13:09.492Z,-0.1
2023-01-20T08:14:09.493Z,-0.1
2023-01-20T08:15:09.488Z,-0.1
2023-01-20T08:16:09.520Z,-0.1
2023-01-20T08:17:09.497Z,0
2023-01-20T08:18:09.487Z,0
2023-01-20T08:19:09.496Z,0.1
2023-01-20T08:20:09.486Z,0.1
2023-01-20T08:21:09.492Z,0.1
2023-01-20T08:22:09.495Z,0.2
2023-01-20T08:23:09.489Z,0.2
2023-01-20T08:24:09.490Z,0.4
2023-01-20T08:25:09.602Z,0.5
2023-01-20T08:26:09.497Z,0.5
2023-01-20T08:27:09.492Z,0.6
2023-01-20T08:28:09.491Z,0.7
2023-01-20T08:29:09.516Z,0.8
2023-01-20T08:30:09.490Z,0.8
2023-01-20T08:31:09.960Z,0.8
2023-01-20T08:32:09.746Z,0.8
2023-01-20T08:33:10.117Z,0.9
2023-01-20T08:34:10.323Z,0.9
2023-01-20T08:35:10.207Z,0.9
2023-01-20T08:36:09.489Z,1
2023-01-20T08:37:09.589Z,1
2023-01-20T08:38:09.781Z,1
2023-01-20T08:39:09.492Z,1
2023-01-20T08:40:09.486Z,1.1
2023-01-20T08:41:09.486Z,1.1
2023-01-20T08:42:09.497Z,1.1
2023-01-20T08:43:09.488Z,1.1
2023-01-20T08:44:09.495Z,1.1
2023-01-20T08:45:09.489Z,1.1
2023-01-20T08:46:09.526Z,1.1
2023-01-20T08:47:09.493Z,1.1
2023-01-20T08:48:09.504Z,1.1
2023-01-20T08:49:09.480Z,1.1
2023-01-20T08:50:09.490Z,1.1
2023-01-20T08:51:09.543Z,1.1
2023-01-20T08:52:12.021Z,1.2
2023-01-20T08:53:09.498Z,1.2
2023-01-20T08:54:09.480Z,1.2
2023-01-20T08:55:09.718Z,1.2
2023-01-20T08:56:09.501Z,1.2
2023-01-20T08:57:09.493Z,1.2
2023-01-20T08:58:09.484Z,1.3
2023-01-20T08:59:09.495Z,1.2
2023-01-20T09:00:09.486Z,1.3
2023-01-20T09:01:09.527Z,1.3
2023-01-20T09:02:09.558Z,1.3
2023-01-20T09:03:09.519Z,1.3
2023-01-20T09:04:09.488Z,1.3
2023-01-20T09:05:09.491Z,1.4
2023-01-20T09:06:09.490Z,1.4
2023-01-20T09:07:09.613Z,1.4
2023-01-20T09:08:09.491Z,1.4
2023-01-20T09:09:09.487Z,1.4
2023-01-20T09:10:09.481Z,1.4
2023-01-20T09:11:09.599Z,1.4
2023-01-20T09:12:09.500Z,1.4
2023-01-20T09:13:09.485Z,1.4
2023-01-20T09:14:09.490Z,1.4
2023-01-20T09:15:09.493Z,1.4
2023-01-20T09:16:09.531Z,1.4
2023-01-20T09:17:09.506Z,1.4
2023-01-20T09:18:09.490Z,1.4
2023-01-20T09:19:09.516Z,1.4
2023-01-20T09:20:09.487Z,1.4
2023-01-20T09:21:09.519Z,1.4
2023-01-20T09:22:09.505Z,1.4
2023-01-20T09:23:09.481Z,1.4
2023-01-20T09:24:09.511Z,1.5
2023-01-20T09:25:09.488Z,1.5
2023-01-20T09:26:09.490Z,1.5
2023-01-20T09:27:09.489Z,1.5
2023-01-20T09:28:09.512Z,1.5
2023-01-20T09:29:10.181Z,1.5
2023-01-20T09:30:09.498Z,1.6
2023-01-20T09:31:09.615Z,1.6
2023-01-20T09:32:09.507Z,1.6
2023-01-20T09:33:09.484Z,1.7
2023-01-20T09:34:09.548Z,1.7
2023-01-20T09:35:09.507Z,1.7
2023-01-20T09:36:09.489Z,1.8
2023-01-20T09:37:09.481Z,1.8
2023-01-20T09:38:09.489Z,1.8
2023-01-20T09:39:09.517Z,1.8
2023-01-20T09:40:09.507Z,1.8
2023-01-20T09:41:09.487Z,1.9
2023-01-20T09:42:09.511Z,1.9
2023-01-20T09:43:09.504Z,2
2023-01-20T09:44:09.507Z,2
2023-01-20T09:45:09.481Z,2.1
2023-01-20T09:46:09.515Z,2.1
2023-01-20T09:47:09.494Z,2.1
2023-01-20T09:48:09.517Z,2.1
2023-01-20T09:49:09.484Z,2.2
2023-01-20T09:50:09.492Z,2.2
2023-01-20T09:51:09.533Z,2.2
2023-01-20T09:52:09.755Z,2.3
2023-01-20T09:53:09.501Z,2.3
2023-01-20T09:54:09.485Z,2.3
2023-01-20T09:55:09.484Z,2.3
2023-01-20T09:56:09.485Z,2.4
2023-01-20T09:57:09.488Z,2.4
2023-01-20T09:58:09.519Z,2.4
2023-01-20T09:59:09.481Z,2.5
2023-01-20T10:00:09.500Z,2.5
2023-01-20T10:01:09.572Z,2.5
2023-01-20T10:02:09.699Z,2.5
2023-01-20T10:03:09.484Z,2.5
2023-01-20T10:04:09.491Z,2.6
2023-01-20T10:05:09.523Z,2.6
2023-01-20T10:06:09.480Z,2.6
2023-01-20T10:07:09.511Z,2.7
2023-01-20T10:08:09.506Z,2.7
2023-01-20T10:09:09.483Z,2.8
2023-01-20T10:10:09.514Z,2.8
2023-01-20T10:11:09.512Z,2.8
2023-01-20T10:12:09.489Z,2.8
2023-01-20T10:13:09.481Z,2.8
2023-01-20T10:14:09.488Z,2.9
2023-01-20T10:15:09.506Z,2.9
2023-01-20T10:16:10.067Z,3
2023-01-20T10:17:09.512Z,3
2023-01-20T10:18:09.805Z,3.1
2023-01-20T10:19:09.664Z,3.1
2023-01-20T10:20:09.490Z,3.2
2023-01-20T10:21:09.485Z,3.2
2023-01-20T10:22:09.495Z,3.2
2023-01-20T10:23:09.515Z,3.3
2023-01-20T10:24:09.496Z,3.3
2023-01-20T10:25:09.486Z,3.3
2023-01-20T10:26:09.495Z,3.2
2023-01-20T10:27:09.617Z,3.2
2023-01-20T10:28:09.485Z,3.2
2023-01-20T10:29:09.499Z,3.2
2023-01-20T10:30:09.486Z,3.2
2023-01-20T10:31:09.545Z,3.2
2023-01-20T10:32:09.491Z,3.2
2023-01-20T10:33:09.645Z,3.2
2023-01-20T10:34:09.503Z,3.2
2023-01-20T10:35:09.482Z,3.1
2023-01-20T10:36:09.489Z,3.1
2023-01-20T10:37:09.501Z,3.1
2023-01-20T10:38:09.497Z,3
2023-01-20T10:39:09.486Z,2.9
2023-01-20T10:40:09.482Z,2.9
2023-01-20T10:41:09.503Z,2.9
2023-01-20T10:42:09.490Z,2.9
2023-01-20T10:43:09.492Z,2.9
2023-01-20T10:44:09.639Z,2.9
2023-01-20T10:45:09.484Z,3
2023-01-20T10:46:12.268Z,3
2023-01-20T10:47:09.484Z,3
2023-01-20T10:48:09.497Z,3
2023-01-20T10:49:09.572Z,3
2023-01-20T10:50:09.775Z,3
2023-01-20T10:51:09.482Z,3.1
2023-01-20T10:52:09.499Z,3.1
2023-01-20T10:53:09.484Z,3.2
2023-01-20T10:54:09.500Z,3.2
2023-01-20T10:55:09.484Z,3.2
2023-01-20T10:56:09.669Z,3.2
2023-01-20T10:57:09.927Z,3.2
2023-01-20T10:58:09.498Z,3.2
2023-01-20T10:59:09.583Z,3.3
2023-01-20T11:00:09.484Z,3.3
2023-01-20T11:01:09.636Z,3.3
2023-01-20T11:02:12.090Z,3.3
2023-01-20T11:03:09.744Z,3.4
2023-01-20T11:04:09.519Z,3.4
2023-01-20T11:05:09.487Z,3.4
2023-01-20T11:06:09.729Z,3.4
2023-01-20T11:07:09.495Z,3.5
2023-01-20T11:08:09.781Z,3.5
2023-01-20T11:09:09.483Z,3.5
2023-01-20T11:10:09.478Z,3.5
2023-01-20T11:11:09.483Z,3.5
2023-01-20T11:12:09.486Z,3.6
2023-01-20T11:13:09.618Z,3.6
2023-01-20T11:14:09.484Z,3.6
2023-01-20T11:15:09.543Z,3.6
2023-01-20T11:16:09.493Z,3.6
2023-01-20T11:17:09.480Z,3.6
2023-01-20T11:18:09.503Z,3.7
2023-01-20T11:19:09.486Z,3.8
2023-01-20T11:20:09.488Z,3.8
2023-01-20T11:21:09.488Z,3.9
2023-01-20T11:22:09.486Z,3.9
2023-01-20T11:23:09.516Z,4
2023-01-20T11:24:09.488Z,4.1
2023-01-20T11:25:09.489Z,4.1
2023-01-20T11:26:09.491Z,4.2
2023-01-20T11:27:09.486Z,4.2
2023-01-20T11:28:09.519Z,4.2
2023-01-20T11:29:09.490Z,4.3
2023-01-20T11:30:09.504Z,4.4
2023-01-20T11:31:09.536Z,4.4
2023-01-20T11:32:09.485Z,4.4
2023-01-20T11:33:09.569Z,4.4
2023-01-20T11:34:09.482Z,4.4
2023-01-20T11:35:09.484Z,4.5
2023-01-20T11:36:09.491Z,4.5
2023-01-20T11:37:09.488Z,4.5
2023-01-20T11:38:09.487Z,4.5
2023-01-20T11:39:09.483Z,4.6
2023-01-20T11:40:09.484Z,4.6
2023-01-20T11:41:09.483Z,4.6
2023-01-20T11:42:09.687Z,4.6
2023-01-20T11:43:09.481Z,4.7
2023-01-20T11:44:09.486Z,4.7
2023-01-20T11:45:21.078Z,4.7
2023-01-20T11:46:09.504Z,4.7
2023-01-20T11:47:09.493Z,4.8
2023-01-20T11:48:09.487Z,4.8
2023-01-20T11:49:09.486Z,4.8
2023-01-20T11:50:09.485Z,4.8
2023-01-20T11:51:09.482Z,4.8
2023-01-20T11:52:09.488Z,4.9
2023-01-20T11:53:09.483Z,4.9
2023-01-20T11:54:09.496Z,4.9
2023-01-20T11:55:09.491Z,4.9
2023-01-20T11:56:09.594Z,4.9
2023-01-20T11:57:09.482Z,4.8
2023-01-20T11:58:09.485Z,4.8
2023-01-20T11:59:09.485Z,4.8
2023-01-20T12:00:09.487Z,4.8
2023-01-20T12:01:09.499Z,4.8
2023-01-20T12:02:09.542Z,4.8
2023-01-20T12:03:09.488Z,4.8
2023-01-20T12:04:09.539Z,4.8
2023-01-20T12:05:09.483Z,4.8
2023-01-20T12:06:09.586Z,4.8
2023-01-20T12:07:09.840Z,4.8
2023-01-20T12:08:10.138Z,4.8
2023-01-20T12:09:10.471Z,4.8
2023-01-20T12:10:09.493Z,4.8
2023-01-20T12:11:09.486Z,4.8
2023-01-20T12:12:09.727Z,4.8
2023-01-20T12:13:09.533Z,4.8
2023-01-20T12:14:09.506Z,4.8
2023-01-20T12:15:09.501Z,4.8
2023-01-20T12:16:09.566Z,4.8
2023-01-20T12:17:09.491Z,4.8
2023-01-20T12:18:09.801Z,4.8
2023-01-20T12:19:09.481Z,4.8
2023-01-20T12:20:09.488Z,4.8
2023-01-20T12:21:09.501Z,4.8
2023-01-20T12:22:09.489Z,4.8
2023-01-20T12:23:09.493Z,4.8
2023-01-20T12:24:09.486Z,4.8
2023-01-20T12:25:09.487Z,4.8
2023-01-20T12:26:09.529Z,4.7
2023-01-20T12:27:09.505Z,4.7
2023-01-20T12:28:09.486Z,4.7
2023-01-20T12:29:09.488Z,4.7
2023-01-20T12:30:09.488Z,4.7
2023-01-20T12:31:09.644Z,4.6
2023-01-20T12:32:09.796Z,4.6
2023-01-20T12:33:09.675Z,4.6
2023-01-20T12:34:09.486Z,4.5
2023-01-20T12:35:09.489Z,4.5
2023-01-20T12:36:09.571Z,4.4
2023-01-20T12:37:09.506Z,4.4
2023-01-20T12:38:09.485Z,4.4
2023-01-20T12:39:09.485Z,4.4
2023-01-20T12:40:09.502Z,4.3
2023-01-20T12:41:09.488Z,4.3
2023-01-20T12:42:09.487Z,4.3
2023-01-20T12:43:09.497Z,4.2
2023-01-20T12:44:09.487Z,4.2
2023-01-20T12:45:09.492Z,4.1
2023-01-20T12:46:09.549Z,4
2023-01-20T12:47:09.504Z,4
2023-01-20T12:48:09.484Z,3.9
2023-01-20T12:49:09.488Z,3.9
2023-01-20T12:50:09.485Z,3.9
2023-01-20T12:51:09.505Z,3.9
2023-01-20T12:52:09.523Z,3.9
2023-01-20T12:53:09.498Z,3.9
2023-01-20T12:54:09.487Z,3.9
2023-01-20T12:55:09.490Z,3.9
2023-01-20T12:56:09.569Z,3.9
2023-01-20T12:57:09.502Z,3.9
2023-01-20T12:58:09.493Z,3.9
2023-01-20T12:59:09.488Z,3.9
2023-01-20T13:00:09.484Z,3.9
2023-01-20T13:01:09.513Z,3.9
2023-01-20T13:02:09.511Z,3.9
2023-01-20T13:03:09.503Z,3.9
2023-01-20T13:04:09.489Z,3.9
2023-01-20T13:05:09.484Z,3.9
2023-01-20T13:06:09.485Z,4
2023-01-20T13:07:09.510Z,4
2023-01-20T13:08:09.485Z,4
2023-01-20T13:09:09.487Z,4
2023-01-20T13:10:09.484Z,4.1
2023-01-20T13:11:09.483Z,4.1
2023-01-20T13:12:09.509Z,4.1
2023-01-20T13:13:09.483Z,4.1
2023-01-20T13:14:09.486Z,4.1
2023-01-20T13:15:09.490Z,4.1
2023-01-20T13:16:09.505Z,4
2023-01-20T13:17:09.500Z,4
2023-01-20T13:18:09.503Z,4
2023-01-20T13:19:09.705Z,4
2023-01-20T13:20:09.512Z,4
2023-01-20T13:21:09.603Z,3.9
2023-01-20T13:22:09.491Z,3.9
2023-01-20T13:23:09.501Z,3.9
2023-01-20T13:24:09.510Z,3.9
2023-01-20T13:25:09.484Z,3.9
2023-01-20T13:26:09.487Z,3.9
2023-01-20T13:27:09.494Z,3.9
2023-01-20T13:28:09.489Z,3.9
2023-01-20T13:29:09.490Z,3.9
2023-01-20T13:30:09.486Z,3.8
2023-01-20T13:31:09.579Z,3.8
2023-01-20T13:32:09.492Z,3.8
2023-01-20T13:33:09.499Z,3.7
2023-01-20T13:34:09.486Z,3.7
2023-01-20T13:35:09.489Z,3.7
2023-01-20T13:36:09.483Z,3.7
2023-01-20T13:37:09.488Z,3.6
2023-01-20T13:38:09.488Z,3.6
2023-01-20T13:39:09.483Z,3.6
2023-01-20T13:40:09.484Z,3.6
2023-01-20T13:41:09.491Z,3.6
2023-01-20T13:42:09.508Z,3.6